• Join FlightAware (Why Join?)
  • Login
  • US Flag 
09:18AM EDT


 

Airport Tracker/Info


-or-


 

Live Flight TrackerFlight Track Log ✈ JBU56 ✈ 23-Apr-2014 ✈ KIAD - KBOS

Flight Track Log - Related Links

Times and Time Zones

All times are in EDT time to prevent confusion due to time zone crossing. See the JBU56 flight status page for this flight to view local times or setup timezone preferences in your user account.

Time Position Orientation Groundspeed Altitude Reporting Facility
EDT Latitude Longitude Course Direction KTS MPH feet Rate Location/Type
08:54AM 38.9667 -77.5000 57° Northeast 153 176 2,200  Level Potomac TRACON
08:55AM 39.0167 -77.5167 345° North 222 255 4,200 2,760 Climbing Potomac TRACON
08:56AM 39.0094 -77.0649 77° East  Level FlightAware Approximate
08:56AM 39.0667 -77.4667 38° Northeast 246 283 7,500  Level Potomac TRACON
08:57AM 39.0339 -76.9297 78° East  Level FlightAware Approximate
08:57AM 39.1167 -77.4000 46° Northeast 269 310 10,000  Level Potomac TRACON
08:58AM 39.0566 -76.7940 78° East  Level FlightAware Approximate
08:58AM 39.1667 -77.3167 52° Northeast 343 395 10,000  Level Potomac TRACON
08:59AM 39.0709 -76.6581 57° Northeast  Level FlightAware Approximate
09:00AM 39.1275 -77.0497 101° East 373 429 15,500  Level Washington Center
09:01AM 39.1042 -76.9131 102° East 379 436 18,000 2,520 Climbing Washington Center
09:02AM 39.1078 -76.7686 88° East 391 450 20,500 1,980 Climbing Washington Center
09:03AM 39.1172 -76.6403 85° East 391 450 22,100 1,200 Climbing Washington Center
09:04AM 39.1289 -76.4933 84° East 399 459 23,000 420 Climbing Washington Center
09:05AM 39.1403 -76.3408 84° East 411 473 23,000  Level Washington Center
09:06AM 39.1536 -76.1939 83° East 416 479 23,000 360 Level Washington Center
09:07AM 39.1731 -76.0414 81° East 423 487 23,800 960 Climbing Washington Center
09:08AM 39.1986 -75.8861 78° East 429 494 25,000 1,320 Climbing Washington Center
09:09AM 39.2800 -75.7658 49° Northeast 423 487 26,400 1,260 Climbing Washington Center
09:10AM 39.3697 -75.6506 45° Northeast 433 498 27,600 1,140 Climbing Washington Center
09:11AM 39.4636 -75.5325 44° Northeast 454 522 28,800 1,260 Climbing Washington Center
09:12AM 39.5550 -75.4111 46° Northeast 464 534 30,200 660 Climbing Washington Center
09:14AM 39.7753 -75.1089 46° Northeast 478 550 31,000 240 Climbing New York Center
09:15AM 39.8656 -74.9764 48° Northeast 478 550 31,000  Level New York Center
09:16AM 39.9553 -74.8519 47° Northeast 475 547 31,000  Level New York Center
09:17AM 40.0431 -74.7269 47° Northeast 485 558 31,000  Level New York Center
09:18AM 40.1350 -74.5936 48° Northeast 485 558 31,000 -60 Level New York Center
09:19AM 40.2286 -74.4683 46° Northeast 485 558 30,900 -720 Descending New York Center
09:20AM 40.3322 -74.3567 39° Northeast 473 544 29,700 -1,320 Descending New York Center
09:21AM 40.4294 -74.2392 43° Northeast 473 544 28,400 -1,320 Descending New York Center
09:22AM 40.5106 -74.0986 53° Northeast 473 544 27,100 -720 Descending New York Center
09:23AM 40.5853 -73.9547 56° Northeast 473 544 27,000 -60 Descending New York Center
09:24AM 40.6708 -73.7944 55° Northeast 479 551 27,000  Level New York Center
09:26AM 40.7789 -73.5972 54° Northeast 480 552 27,000 -180 Level Boston Center
09:27AM 40.8550 -73.4544 55° Northeast 478 550 26,600 -840 Descending Boston Center
09:28AM 40.9581 -73.2975 49° Northeast 477 549 25,400 -1,140 Descending Boston Center
09:29AM 41.0450 -73.1697 48° Northeast 473 544 24,400 -1,020 Descending Boston Center
09:30AM 41.1300 -73.0417 49° Northeast 467 537 23,400 -1,020 Descending Boston Center
09:31AM 41.1994 -72.9072 56° Northeast 453 521 22,400 -1,020 Descending Boston Center
09:32AM 41.2511 -72.7608 65° Northeast 443 510 21,400 -720 Descending Boston Center
09:33AM 41.3031 -72.6203 64° Northeast 432 497 21,000 -240 Descending Boston Center
09:34AM 41.3536 -72.4783 65° Northeast 430 495 21,000  Level Boston Center
09:35AM 41.4058 -72.3350 64° Northeast 431 496 21,000  Level Boston Center
09:36AM 41.4572 -72.1906 65° Northeast 431 496 21,000  Level Boston Center
09:37AM 41.5083 -72.0467 65° Northeast 431 496 21,000 -120 Level Boston Center
09:38AM 41.5692 -71.8742 65° Northeast 431 496 20,800 -1,020 Descending Boston Center
09:39AM 41.6203 -71.7292 65° Northeast 431 496 19,000 -2,040 Descending Boston Center
09:40AM 41.6708 -71.5858 65° Northeast 401 461 16,700 -1,680 Descending Boston Center
09:41AM 41.7119 -71.4675 65° Northeast 355 409 15,700 -1,380 Descending Boston Center
09:42AM 41.7583 -71.3522 62° Northeast 352 405 14,000 -1,620 Descending Boston Center
09:43AM 41.8086 -71.2342 60° Northeast 342 394 12,400 -1,560 Descending Boston Center
09:44AM 41.8542 -71.1272 60° Northeast 334 384 10,900 -1,500 Descending Boston Center
09:45AM 41.8986 -71.0239 60° Northeast 324 373 9,400 -1,440 Descending Boston Center
09:46AM 41.9489 -70.9297 54° Northeast 315 362 8,000 -1,500 Descending Boston Center
09:47AM 42.0333 -70.8767 25° Northeast 313 360 6,400 -1,500 Descending Boston Center
09:48AM 42.1006 -70.8361 24° Northeast 291 335 5,000 -1,200 Descending Boston Center
09:49AM 42.1703 -70.7981 22° Northeast 277 319 4,000 -840 Descending Boston Center
09:50AM 42.2403 -70.8356 338° Northwest 260 299 3,300 -1,020 Descending Boston Center
09:51AM 42.2853 -70.9003 313° West 215 247 2,000 -1,020 Descending Boston Center
09:52AM 42.3133 -70.9356 317° Northwest 145 167 1,300 -720 Descending Boston Center
09:53AM 42.3400 -70.9697 317° Northwest 134 154 600 -480 Descending Boston Center
09:54AM 42.3678 -71.0064 316° Northwest 134 154 400 -240 Descending Boston Center